Flight Track Log - Related Links

Times and Time Zones

All times are in EDT time to prevent confusion due to time zone crossing. See the N143DE flight status page for this flight to view local times or setup timezone preferences in your user account.

Time Position Orientation Groundspeed Altitude Reporting Facility
EDT Latitude Longitude Course Direction KTS MPH feet Rate Location/Type
Wed 05:36:10 PM 36.4111 -82.4650 210° Southwest 162 186 5,700  Level Atlanta Center
Wed 05:37:10 PM 36.3800 -82.4914 214° Southwest 169 194 7,300 1,800 Climbing Atlanta Center
Wed 05:38:10 PM 36.3408 -82.5258 215° Southwest 169 194 9,300 1,900 Climbing Atlanta Center
Wed 05:39:10 PM 36.3017 -82.5650 216° Southwest 174 200 11,100 1,850 Climbing Atlanta Center
Wed 05:40:10 PM 36.2669 -82.6122 228° Southwest 179 206 13,000 1,700 Climbing Atlanta Center
Wed 05:41:10 PM 36.2342 -82.6589 229° Southwest 179 206 14,500 1,450 Climbing Atlanta Center
Wed 05:42:10 PM 36.2011 -82.7058 229° Southwest 184 212 15,900 1,350 Climbing Atlanta Center
Wed 05:43:10 PM 36.1706 -82.7578 234° Southwest 190 219 17,200 1,150 Climbing Atlanta Center
Wed 05:44:10 PM 36.1419 -82.8122 237° Southwest 190 219 18,200 1,000 Climbing Atlanta Center
Wed 05:45:10 PM 36.1153 -82.8667 239° Southwest 195 224 19,200 900 Climbing Atlanta Center
Wed 05:46:10 PM 36.0844 -82.9236 236° Southwest 195 224 20,000 900 Climbing Atlanta Center
Wed 05:47:10 PM 36.0475 -82.9731 227° Southwest 200 230 21,000 900 Climbing Atlanta Center
Wed 05:48:10 PM 36.0081 -83.0222 225° Southwest 211 243 21,800 800 Climbing Atlanta Center
Wed 05:49:10 PM 35.9647 -83.0717 223° Southwest 211 243 22,600 800 Climbing Atlanta Center
Wed 05:50:10 PM 35.9233 -83.1208 224° Southwest 216 249 23,400 750 Climbing Atlanta Center
Wed 05:51:10 PM 35.8800 -83.1725 224° Southwest 216 249 24,100 650 Climbing Atlanta Center
Wed 05:52:10 PM 35.8367 -83.2292 227° Southwest 216 249 24,700 550 Climbing Atlanta Center
Wed 05:53:10 PM 35.7911 -83.2811 223° Southwest 222 255 25,200 500 Climbing Atlanta Center
Wed 05:54:10 PM 35.7475 -83.3325 224° Southwest 222 255 25,700 450 Climbing Atlanta Center
Wed 05:55:10 PM 35.7039 -83.3867 225° Southwest 222 255 26,100 250 Climbing Atlanta Center
Wed 05:56:10 PM 35.6542 -83.4433 223° Southwest 228 262 26,200 50 Climbing Atlanta Center
Wed 05:57:10 PM 35.6044 -83.5022 224° Southwest 240 276 26,200 -50 Level Atlanta Center
Wed 05:58:10 PM 35.5525 -83.5614 223° Southwest 246 283 26,100 -50 Descending Atlanta Center
Wed 05:59:10 PM 35.5006 -83.6231 224° Southwest 258 297 26,100  Level Atlanta Center
Wed 06:00:10 PM 35.4486 -83.6844 224° Southwest 258 297 26,100  Level Atlanta Center
Wed 06:01:10 PM 35.3944 -83.7458 223° Southwest 258 297 26,100  Level Atlanta Center
Wed 06:02:10 PM 35.3425 -83.8069 224° Southwest 264 304 26,100  Level Atlanta Center
Wed 06:03:10 PM 35.2906 -83.8658 223° Southwest 264 304 26,100  Level Atlanta Center
Wed 06:04:10 PM 35.2406 -83.9244 224° Southwest 264 304 26,100  Level Atlanta Center
Wed 06:05:10 PM 35.1861 -83.9881 224° Southwest 264 304 26,100 50 Level Atlanta Center
Wed 06:06:10 PM 35.1342 -84.0464 223° Southwest 264 304 26,200 50 Climbing Atlanta Center
Wed 06:07:10 PM 35.0819 -84.1072 224° Southwest 264 304 26,200  Level Atlanta Center
Wed 06:08:10 PM 35.0256 -84.1706 223° Southwest 264 304 26,200  Level Atlanta Center
Wed 06:09:10 PM 34.9733 -84.2314 224° Southwest 264 304 26,200  Level Atlanta Center
Wed 06:10:10 PM 34.9272 -84.2844 223° Southwest 264 304 26,200 -50 Level Atlanta Center
Wed 06:11:10 PM 34.8728 -84.3425 221° Southwest 264 304 26,100  Descending Atlanta Center
Wed 06:12:10 PM 34.8164 -84.4056 223° Southwest 264 304 26,200 50 Climbing Atlanta Center
Wed 06:13:10 PM 34.7639 -84.4636 222° Southwest 264 304 26,200  Level Atlanta Center
Wed 06:14:10 PM 34.7136 -84.5264 226° Southwest 264 304 26,200  Level Atlanta Center
Wed 06:15:10 PM 34.6614 -84.5867 224° Southwest 264 304 26,200  Level Atlanta Center
Wed 06:16:10 PM 34.6067 -84.6419 220° Southwest 259 298 26,200  Level Atlanta Center
Wed 06:17:10 PM 34.5564 -84.7022 225° Southwest 264 304 26,200  Level Atlanta Center
Wed 06:18:10 PM 34.5039 -84.7622 223° Southwest 264 304 26,200  Level Atlanta Center
Wed 06:19:10 PM 34.4514 -84.8197 222° Southwest 264 304 26,200  Level Atlanta Center
Wed 06:20:10 PM 34.4008 -84.8772 223° Southwest 264 304 26,200  Level Atlanta Center
Wed 06:21:10 PM 34.3483 -84.9344 222° Southwest 264 304 26,200  Level Atlanta Center
Wed 06:22:10 PM 34.2978 -84.9942 224° Southwest 264 304 26,200  Level Atlanta Center
Wed 06:23:10 PM 34.2472 -85.0517 223° Southwest 264 304 26,200  Level Atlanta Center
Wed 06:24:10 PM 34.1989 -85.1036 222° Southwest 264 304 26,200  Level Atlanta Center
Wed 06:25:10 PM 34.1461 -85.1633 223° Southwest 264 304 26,200  Level Atlanta Center
Wed 06:26:10 PM 34.0911 -85.2203 221° Southwest 264 304 26,200  Level Atlanta Center
Wed 06:27:10 PM 34.0428 -85.2772 224° Southwest 264 304 26,200  Level Atlanta Center
Wed 06:28:10 PM 33.9878 -85.3367 222° Southwest 264 304 26,200  Level Atlanta Center
Wed 06:29:10 PM 33.9392 -85.3933 224° Southwest 259 298 26,200  Level Atlanta Center
Wed 06:30:10 PM 33.8842 -85.4525 222° Southwest 265 305 26,200  Level Atlanta Center
Wed 06:31:10 PM 33.8314 -85.5117 223° Southwest 265 305 26,200  Level Atlanta Center
Wed 06:32:10 PM 33.7722 -85.5733 221° Southwest 265 305 26,200  Level Atlanta Center
Wed 06:33:10 PM 33.7233 -85.6322 225° Southwest 265 305 26,200  Level Atlanta Center
Wed 06:34:10 PM 33.6664 -85.6886 220° Southwest 265 305 26,200  Level Atlanta Center
Wed 06:35:10 PM 33.6133 -85.7475 223° Southwest 259 298 26,200  Level Atlanta Center
Wed 06:36:10 PM 33.5603 -85.8014 220° Southwest 259 298 26,200 -50 Level Atlanta Center
Wed 06:37:10 PM 33.5053 -85.8550 219° Southwest 259 298 26,100 -50 Descending Atlanta Center
Wed 06:38:10 PM 33.4522 -85.9211 226° Southwest 264 304 26,100  Level Atlanta Center
Wed 06:39:10 PM 33.3992 -85.9772 221° Southwest 264 304 26,100  Level Atlanta Center
Wed 06:40:10 PM 33.3461 -86.0331 221° Southwest 264 304 26,100  Level Atlanta Center
Wed 06:41:10 PM 33.2931 -86.0917 223° Southwest 264 304 26,100  Level Atlanta Center
Wed 06:42:10 PM 33.2397 -86.1475 221° Southwest 264 304 26,100  Level Atlanta Center
Wed 06:43:10 PM 33.1844 -86.2081 223° Southwest 264 304 26,100 50 Level Atlanta Center
Wed 06:44:10 PM 33.1314 -86.2639 221° Southwest 264 304 26,200 50 Climbing Atlanta Center
Wed 06:45:10 PM 33.0781 -86.3244 224° Southwest 264 304 26,200  Level Atlanta Center
Wed 06:46:10 PM 33.0269 -86.3803 222° Southwest 264 304 26,200  Level Atlanta Center
Wed 06:47:10 PM 32.9714 -86.4381 221° Southwest 264 304 26,200  Level Atlanta Center
Wed 06:48:10 PM 32.9203 -86.4936 222° Southwest 264 304 26,200  Level Atlanta Center
Wed 06:49:10 PM 32.8650 -86.5489 220° Southwest 264 304 26,200  Level Atlanta Center
Wed 06:50:10 PM 32.8114 -86.6092 223° Southwest 264 304 26,200  Level Atlanta Center
Wed 06:51:10 PM 32.7581 -86.6669 222° Southwest 264 304 26,200  Level Atlanta Center
Wed 06:52:10 PM 32.7047 -86.7222 221° Southwest 264 304 26,200  Level Atlanta Center
Wed 06:53:10 PM 32.6514 -86.7797 222° Southwest 264 304 26,200  Level Atlanta Center
Wed 06:54:10 PM 32.5958 -86.8372 221° Southwest 264 304 26,200  Level Atlanta Center
Wed 06:55:10 PM 32.5486 -86.8897 223° Southwest 264 304 26,200  Level Atlanta Center
Wed 06:56:10 PM 32.4931 -86.9422 219° Southwest 264 304 26,200  Level Atlanta Center
Wed 06:57:10 PM 32.4417 -86.9997 223° Southwest 264 304 26,200  Level Atlanta Center
Wed 06:58:10 PM 32.3903 -87.0569 223° Southwest 264 304 26,200  Level Atlanta Center
Wed 06:59:10 PM 32.3367 -87.1117 221° Southwest 264 304 26,200  Level Atlanta Center
Wed 07:00:10 PM 32.2831 -87.1639 219° Southwest 264 304 26,200  Level Atlanta Center
Wed 07:01:10 PM 32.2294 -87.2183 221° Southwest 264 304 26,200  Level Atlanta Center
Wed 07:02:10 PM 32.1758 -87.2756 222° Southwest 264 304 26,200  Level Atlanta Center
Wed 07:03:10 PM 32.1244 -87.3325 223° Southwest 257 296 26,200  Level Atlanta Center
Wed 07:04:10 PM 32.0686 -87.3867 219° Southwest 257 296 26,200  Level Atlanta Center
Wed 07:05:10 PM 32.0169 -87.4411 222° Southwest 257 296 26,200  Level Atlanta Center
Wed 07:07:11 PM 31.9025 -87.5556 220° Southwest 257 296 26,200  Level Houston Center
Wed 07:08:13 PM 31.8503 -87.6125 223° Southwest 255 293 26,200  Level Houston Center
Wed 07:09:15 PM 31.7972 -87.6667 221° Southwest 253 291 26,200  Level Houston Center
Wed 07:10:17 PM 31.7439 -87.7222 222° Southwest 256 295 26,200  Level Houston Center
Wed 07:11:20 PM 31.6800 -87.7878 221° Southwest 254 292 26,200  Level Houston Center
Wed 07:12:22 PM 31.6269 -87.8425 221° Southwest 255 293 26,200  Level Houston Center
Wed 07:13:24 PM 31.5742 -87.8986 222° Southwest 256 295 26,200  Level Houston Center
Wed 07:14:26 PM 31.5194 -87.9536 221° Southwest 258 297 26,200  Level Houston Center
Wed 07:15:28 PM 31.4656 -88.0075 220° Southwest 257 296 26,200 -532 Level Houston Center
Wed 07:16:30 PM 31.4089 -88.0658 221° Southwest 270 311 25,100 -1,355 Descending Houston Center
Wed 07:17:32 PM 31.3386 -88.1378 221° Southwest 279 321 23,400 -1,645 Descending Houston Center
Wed 07:18:34 PM 31.2792 -88.1986 221° Southwest 284 327 21,700 -1,548 Descending Houston Center
Wed 07:19:36 PM 31.2200 -88.2606 222° Southwest 288 331 20,200 -1,452 Descending Houston Center
Wed 07:20:38 PM 31.1614 -88.3194 221° Southwest 282 325 18,700 -1,584 Descending Houston Center
Wed 07:21:41 PM 31.0925 -88.3867 220° Southwest 274 315 16,900 -1,680 Descending Houston Center
Wed 07:22:43 PM 31.0347 -88.4422 219° Southwest 274 315 15,200 -1,452 Descending Houston Center
Wed 07:23:45 PM 30.9808 -88.4972 221° Southwest 262 302 13,900 -1,161 Descending Houston Center
Wed 07:24:47 PM 30.9294 -88.5486 221° Southwest 247 284 12,800 -919 Descending Houston Center
Wed 07:25:49 PM 30.8789 -88.6003 221° Southwest 243 280 12,000 -532 Descending Houston Center
Wed 07:26:51 PM 30.8242 -88.6542 220° Southwest 221 254 11,700 -484 Descending Houston Center
Wed 07:27:53 PM 30.7783 -88.7000 221° Southwest 217 250 11,000 -339 Descending Houston Center
Wed 07:28:55 PM 30.7431 -88.7506 231° Southwest 206 237 11,000 -435 Level Houston Center
Wed 07:29:57 PM 30.7086 -88.7972 229° Southwest 194 223 10,100 -1,344 Descending Houston Center
Wed 07:31:00 PM 30.6678 -88.8558 231° Southwest 224 258 8,200 -1,632 Descending Houston Center
Wed 07:32:02 PM 30.6283 -88.9183 234° Southwest 238 274 6,700 -1,452 Descending Houston Center
Wed 07:33:04 PM 30.5892 -88.9833 235° Southwest 226 260 5,200 -1,258 Descending Houston Center
Wed 07:34:06 PM 30.5561 -89.0400 236° Southwest 216 249 4,100 -1,016 Descending Houston Center
Wed 07:35:08 PM 30.5253 -89.0939 236° Southwest 205 236 3,100 -1,113 Descending Houston Center
Wed 07:36:10 PM 30.4753 -89.1189 203° Southwest 181 208 1,800 -1,016 Descending Houston Center
Wed 07:37:12 PM 30.4439 -89.1142 173° South 169 194 1,000 -774 Descending Houston Center
Wed 07:39:00 PM 30.4073 -89.0701 221° Southwest  Level Estimated
Wed 07:46:00 PM 30.4073 -89.0701 221° Southwest  Level Estimated
Wed 07:47:00 PM 30.4073 -89.0701 221° Southwest  Level Estimated

Login

Don't have an account? Register now (free) for customized features, flight alerts, and more!